Nearby METAR Reports

 

KPTW - Pottstown, Pennsylvania, USA
Distance from station: NE 6mi, 10km
Updated: 05/24/2018 5:54am
Clear
Clear
 Wind from varies
Wind: varies 3 mph , 6 km/h
Temperature: 55°F , 13°C
Dew Point: 54°F , 12°C
Humidity: 94%
Barometer: 30.13 inHg , 1020.3 hPa
Clouds: Clear
Visibility: 8 miles , 13 km
2018/05/24 09:54 KPTW 240954Z AUTO VRB03KT 8SM CLR 13/12 A3013 RMK AO2 SLP200 T01330117 $
KMQS - Coatesville, Pennsylvania, USA
Distance from station: SW 18mi, 29km
Updated: 05/24/2018 5:55am
Clear
Clear
 Wind from NNW
Wind: NNW 7 mph , 11 km/h
Temperature: 63°F , 17°C
Dew Point: 54°F , 12°C
Humidity: 73%
Barometer: 30.14 inHg , 1020.7 hPa
Clouds: Clear
Visibility: 10 miles , 16 km
2018/05/24 09:55 KMQS 240955Z AUTO 33006KT 10SM CLR 17/12 A3014 RMK AO2
 
KLOM - Philly Wings F, Pennsylvania, USA
Distance from station: E 19mi, 31km
Updated: 05/24/2018 5:55am
Clear
Clear
 Wind from calm
Wind: Calm
Temperature: 54°F , 12°C
Dew Point: 54°F , 12°C
Humidity: 100%
Barometer: 30.13 inHg , 1020.3 hPa
Clouds: Clear
Visibility: 10 miles , 16 km
2018/05/24 09:55 KLOM 240955Z AUTO 00000KT 10SM CLR 12/12 A3013 RMK AO1
KRDG - Reading, Pennsylvania, USA
Distance from station: NW 22mi, 36km
Updated: 05/24/2018 5:54am
Clear
Clear
 Wind from WNW
Wind: WNW 3 mph , 6 km/h
Temperature: 55°F , 13°C
Dew Point: 54°F , 12°C
Humidity: 94%
Barometer: 30.13 inHg , 1020.3 hPa
Clouds: Clear
Visibility: 10 miles , 16 km
2018/05/24 09:54 KRDG 240954Z 30003KT 10SM CLR 13/12 A3013 RMK AO2 SLP205 T01330122
 
KUKT - Quakertown Arp, Pennsylvania, USA
Distance from station: NE 22mi, 36km
Updated: 05/24/2018 5:55am
Clear
Clear
 Wind from calm
Wind: Calm
Temperature: 61°F , 16°C
Dew Point: 52°F , 11°C
Humidity: 72%
Barometer: 30.13 inHg , 1020.3 hPa
Clouds: Clear
Visibility: 10 miles , 16 km
2018/05/24 09:55 KUKT 240955Z AUTO 00000KT 10SM CLR 16/11 A3013 RMK A01
KXLL - Allentown Queen, Pennsylvania, USA
Distance from station: NNE 28mi, 46km
Updated: 05/24/2018 5:55am
Clear
Clear
 Wind from calm
Wind: Calm
Temperature: 54°F , 12°C
Dew Point: 54°F , 12°C
Humidity: 100%
Barometer: 30.15 inHg , 1021 hPa
Clouds: Clear
Visibility: 10 miles , 16 km
2018/05/24 09:55 KXLL 240955Z AUTO 00000KT 10SM CLR 12/12 A3015 RMK AO2
 
KDYL - Doylestown, Pennsylvania, USA
Distance from station: ENE 29mi, 47km
Updated: 05/24/2018 5:54am
Clear
Clear
 Wind from N
Wind: N 5 mph , 7 km/h
Temperature: 59°F , 15°C
Dew Point: 52°F , 11°C
Humidity: 77%
Barometer: 30.11 inHg , 1019.6 hPa
Clouds: Clear
Visibility: 10 miles , 16 km
2018/05/24 09:54 KDYL 240954Z AUTO 36004KT 10SM CLR 15/11 A3011 RMK AO2 SLP191 T01500106
KPHL - Philadelphia, Pennsylvania, USA
Distance from station: SE 30mi, 48km
Updated: 05/24/2018 5:54am
Clear
Clear
 Wind from NW
Wind: NW 7 mph , 11 km/h
Temperature: 64°F , 18°C
Dew Point: 54°F , 12°C
Humidity: 68%
Barometer: 30.11 inHg , 1019.6 hPa
Clouds: Clear
Visibility: 9 miles , 14 km
2018/05/24 09:54 KPHL 240954Z 32006KT 9SM CLR 18/12 A3011 RMK AO2 SLP194 T01780117 CHINO W VISNO W $
 
KPNE - Philadelphia/Ne, Pennsylvania, USA
Distance from station: E 33mi, 53km
Updated: 05/24/2018 5:54am
Clear
Clear
 Wind from WSW
Wind: WSW 3 mph , 6 km/h
Temperature: 59°F , 15°C
Dew Point: 52°F , 11°C
Humidity: 77%
Barometer: 30.11 inHg , 1019.6 hPa
Clouds: Clear
Visibility: 10 miles , 16 km
2018/05/24 09:54 KPNE 240954Z 24003KT 10SM CLR 15/11 A3011 RMK AO2 SLP197 T01500111
KABE - Allentown, Pennsylvania, USA
Distance from station: NNE 34mi, 55km
Updated: 05/24/2018 5:51am
Clear
Clear
 Wind from calm
Wind: Calm
Temperature: 54°F , 12°C
Dew Point: 50°F , 10°C
Humidity: 88%
Barometer: 30.13 inHg , 1020.3 hPa
Clouds: Clear
Visibility: 10 miles , 16 km
2018/05/24 09:51 KABE 240951Z AUTO 00000KT 10SM CLR 12/10 A3013 RMK AO2 SLP202 T01220100
 
KILG - Wilmington, Delaware, USA
Distance from station: S 35mi, 56km
Updated: 05/24/2018 5:51am
Clear
Clear
 
Temperature: 57°F , 14°C
Dew Point: 54°F , 12°C
Humidity: 88%
Barometer: 30.11 inHg , 1019.6 hPa
Clouds: Clear
Visibility: 10 miles , 16 km
2018/05/24 09:51 KILG 240951Z AUTO 10SM CLR 14/12 A3011 RMK AO2 SLP197 T01440122 $
KLNS - Lancaster, Pennsylvania, USA
Distance from station: W 36mi, 57km
Updated: 05/24/2018 5:53am
Clear
Clear
 Wind from W
Wind: W 8 mph , 13 km/h
Temperature: 57°F , 14°C
Dew Point: 54°F , 12°C
Humidity: 88%
Barometer: 30.14 inHg , 1020.7 hPa
Clouds: Clear
Visibility: 10 miles , 16 km
2018/05/24 09:53 KLNS 240953Z 27007KT 10SM CLR 14/12 A3014 RMK AO2 SLP204 T01390122 $
 
KTTN - Trenton, New Jersey, USA
Distance from station: E 44mi, 70km
Updated: 05/24/2018 5:53am
Clear
Clear
 Wind from NW
Wind: NW 5 mph , 7 km/h
Temperature: 61°F , 16°C
Dew Point: 52°F , 11°C
Humidity: 72%
Barometer: 30.09 inHg , 1019 hPa
Clouds: Clear
Visibility: 10 miles , 16 km
2018/05/24 09:53 KTTN 240953Z 32004KT 10SM CLR 16/11 A3009 RMK AO2 SLP182 T01560106
KVAY - Mount Holly, New Jersey, USA
Distance from station: ESE 45mi, 73km
Updated: 05/24/2018 5:54am
Clear
Clear
 Wind from calm
Wind: Calm
Temperature: 57°F , 14°C
Dew Point: 54°F , 12°C
Humidity: 88%
Barometer: 30.09 inHg , 1019 hPa
Clouds: Clear
Visibility: 10 miles , 16 km
2018/05/24 09:54 KVAY 240954Z AUTO 00000KT 10SM CLR 14/12 A3009 RMK AO2 SLP189 T01440117
 
KMUI - Muir Aaf/Indiant, Pennsylvania, USA
Distance from station: WNW 52mi, 84km
Updated: 05/24/2018 5:56am
Clear
Clear
 Wind from NNW
Wind: NNW 8 mph , 13 km/h
Temperature: 66°F , 19°C
Dew Point: 46°F , 8°C
Humidity: 49%
Barometer: 30.14 inHg , 1020.7 hPa
Clouds: Clear
Visibility: 10 miles , 16 km
2018/05/24 09:56 KMUI 240956Z AUTO 34007KT 10SM CLR 19/08 A3014 RMK AO2 SLP207 T01850079
KAPG - Aberdeen/Phillip, Maryland, USA
Distance from station: SSW 56mi, 91km
Updated: 12/31/1969 7:00pm
NOT Current
unable to load KAPG data RC=404 Not Found
unable to load KAPG data RC=404 Not Found
 
 
KWRI - Wrightst/Mcguire, New Jersey, USA
Distance from station: E 56mi, 91km
Updated: 05/24/2018 4:56am
Clear
Clear
 Wind from NW
Wind: NW 6 mph , 9 km/h
Temperature: 63°F , 17°C
Dew Point: 54°F , 12°C
Humidity: 73%
Barometer: 30.04 inHg , 1017.3 hPa
Clouds: Clear
Visibility: 10 miles , 16 km
2018/05/24 08:56 KWRI 240856Z AUTO 31005KT 10SM CLR 17/12 A3004 RMK AO2 SLP172 T01660119 52005
KSMQ - Somerville, New Jersey, USA
Distance from station: ENE 59mi, 96km
Updated: 05/24/2018 5:53am
Clear
Clear
 Wind from NW
Wind: NW 3 mph , 6 km/h
Temperature: 52°F , 11°C
Dew Point: 52°F , 11°C
Humidity: 100%
Barometer: 30.08 inHg , 1018.6 hPa
Clouds: Clear
Visibility: 8 miles , 13 km
2018/05/24 09:53 KSMQ 240953Z AUTO 32003KT 8SM CLR 11/11 A3008 RMK AO2 SLP186 T01060106
 
KMDT - Middletown, Pennsylvania, USA
Distance from station: W 60mi, 97km
Updated: 05/24/2018 5:56am
Clear
Clear
 Wind from NNW
Wind: NNW 7 mph , 11 km/h
Temperature: 61°F , 16°C
Dew Point: 54°F , 12°C
Humidity: 77%
Barometer: 30.14 inHg , 1020.7 hPa
Clouds: Clear
Visibility: 10 miles , 16 km
2018/05/24 09:56 KMDT 240956Z 33006KT 10SM CLR 16/12 A3014 RMK AO2 SLP206 T01560117
KMIV - Millville, New Jersey, USA
Distance from station: SSE 63mi, 101km
Updated: 05/24/2018 5:54am
Clear
Clear
 Wind from NNW
Wind: NNW 5 mph , 7 km/h
Temperature: 59°F , 15°C
Dew Point: 54°F , 12°C
Humidity: 82%
Barometer: 30.09 inHg , 1019 hPa
Clouds: Clear
Visibility: 10 miles , 16 km
2018/05/24 09:54 KMIV 240954Z AUTO 33004KT 10SM CLR 15/12 A3009 RMK AO2 SLP188 T01500122